Mount Croghan, SC (29727)

1:15 AM EDT on October 26, 2014 (GMT -0400)
Ruby-Mt.Croghan | Change Station
CLOSE
Current Station
Personal Weather Station
Location: Ruby, SC
Elevation: 391 ft
Nearby Weather Stations

Elev 391 ft 34.75 °N, 80.19 °W | Updated 1 minute ago

Clear
Clear
56.8 °F
Feels Like 56.8 °F
N
0.0
Wind Variable Wind from SE
Gusts 13.0 mph

Today
High -- | Low -- °F
--% Chance of Precip.
Yesterday
High -- | Low -- °F
Precip. -- in
7:36 AM 6:33 PM
Waxing Crescent, 6% visible
Pressure 29.90 in
Visibility 10.0 miles
Clouds Clear
Dew Point 46 °F
Humidity 66%
Rainfall 0.00 in
Snow Depth Not available.
UV 0 out of 12
Pollen 3.00 out of 12
Ozone Good
PM2.5 Good
Flu Activity Sporadic
METAR KCQW 260455Z AUTO 25006KT 10SM CLR 12/07 A2990 RMK AO2

More Conditions Fewer Conditions

Pressure 29.90 in
Visibility 10.0 miles
Clouds Clear
Dew Point 46 °F
Humidity 66%
Rainfall 0.00 in
Snow Depth Not available.
UV 0 out of 12
Pollen 3.00 out of 12
Ozone Good
PM2.5 Good
Flu Activity Sporadic
METAR KCQW 260455Z AUTO 25006KT 10SM CLR 12/07 A2990 RMK AO2

More Conditions Fewer Conditions

10-Day Weather Forecast

Almanac

Astronomy

Oct. 26, 2014 Rise Set
Actual Time 7:36 AM EDT 6:33 PM EDT
Civil Twilight 7:10 AM EDT 6:59 PM EDT
Nautical Twilight 6:40 AM EDT 7:28 PM EDT
Astronomical Twilight 6:11 AM EDT 7:57 PM EDT
Moon 10:08 AM EDT 8:47 PM EDT
Length of Visible Light 11h 48m
Length of Day
10h 57m
Tomorrow will be 1m 58s shorter.
Waxing Crescent, 6% of the Moon is Illuminated
Today
Waxing Crescent
Oct 30
First Quarter
Nov 6
Full
Nov 14
Last Quarter
Nov 22
New

Today's Extremes

State Highs State Lows

Community

WunderPhotos

Upload Photos

1,765,111 photos uploaded!

Nearby

Air Quality

  Air Quality AQ Index Pollutant
Yesterday Good
PM2.5
Yesterday Good
OZONE
Current Good
PM2.5
Current Good
OZONE

Snow Depth

Station Depth Elevation
No new snow has been reported.

Earthquake Activity

City Distance Mag. Time & Date
No recent earthquake activity has been reported nearby.
Minimum magnitude displayed is 2.5.

Coastal Water Temperatures

Place Temperature
No Stations Reporting

Nearby Weather Stations